Time;durP1;ratioP1;P1;durP2;ratioP2;P2;SDS_P1;SDS_P2;PMS_P1;PMS_P2;Temp;Humidity;BMP_temperature;BMP_pressure;BME280_temperature;BME280_humidity;BME280_pressure;Samples;Min_cycle;Max_cycle;Signal;HPM_P1;HPM_P2
2023/01/15 00:01:35;;;;;;;5.80;1.77;;;7.20;99.90;;;;;;5077494;28;20183;-80
2023/01/15 00:04:02;;;;;;;6.43;1.57;;;7.20;99.90;;;;;;5080212;28;20191;-81
2023/01/15 00:06:28;;;;;;;0.80;0.77;;;7.20;99.90;;;;;;5080742;28;20178;-80
2023/01/15 00:08:55;;;;;;;3.03;1.10;;;7.10;99.90;;;;;;5081730;28;20179;-80
2023/01/15 00:11:21;;;;;;;2.77;0.90;;;7.10;99.90;;;;;;5080312;28;20202;-80
2023/01/15 00:13:46;;;;;;;4.90;0.93;;;7.10;99.90;;;;;;5081665;28;20557;-80
2023/01/15 00:16:16;;;;;;;4.80;1.20;;;7.10;99.90;;;;;;5080391;28;20167;-80
2023/01/15 00:18:42;;;;;;;2.73;1.07;;;7.10;99.90;;;;;;5082111;28;20642;-81
2023/01/15 00:21:11;;;;;;;1.93;0.70;;;7.10;99.90;;;;;;5081473;28;20218;-81
2023/01/15 00:29:09;;;;;;;5.30;1.20;;;7.10;99.90;;;;;;5082862;28;20170;-81
2023/01/15 00:31:35;;;;;;;6.53;1.43;;;7.10;99.90;;;;;;5082185;28;20594;-80
2023/01/15 00:34:01;;;;;;;6.30;1.07;;;7.10;99.90;;;;;;5081917;28;20197;-81
2023/01/15 00:36:27;;;;;;;11.87;2.30;;;7.10;99.90;;;;;;5080032;28;20190;-81
2023/01/15 00:38:52;;;;;;;7.30;1.60;;;7.10;99.90;;;;;;5081333;28;20183;-82
2023/01/15 00:41:18;;;;;;;6.00;0.93;;;7.20;99.90;;;;;;5080663;28;20209;-81
2023/01/15 00:43:44;;;;;;;1.63;1.10;;;7.20;99.90;;;;;;5080923;28;20202;-80
2023/01/15 00:46:09;;;;;;;5.20;1.10;;;7.20;99.90;;;;;;5082210;28;20519;-81
2023/01/15 00:48:35;;;;;;;5.13;1.73;;;7.20;99.90;;;;;;5082145;28;20178;-81
2023/01/15 00:51:02;;;;;;;5.37;1.00;;;7.10;99.90;;;;;;5082915;28;20203;-81
2023/01/15 00:53:28;;;;;;;2.70;1.00;;;7.10;99.90;;;;;;5083331;28;20179;-81
2023/01/15 00:55:53;;;;;;;4.07;1.13;;;7.10;99.90;;;;;;5092668;28;20250;-82
2023/01/15 00:58:19;;;;;;;2.63;0.90;;;7.10;99.90;;;;;;5093795;28;20270;-81
2023/01/15 01:00:44;;;;;;;4.60;0.90;;;7.10;99.90;;;;;;5091920;28;20725;-81
2023/01/15 01:03:10;;;;;;;8.07;1.00;;;7.10;99.90;;;;;;5081469;28;20199;-81
2023/01/15 01:05:36;;;;;;;2.90;0.80;;;7.10;99.90;;;;;;5080425;28;20179;-81
2023/01/15 01:08:01;;;;;;;4.60;1.20;;;7.10;99.90;;;;;;5080023;28;20171;-81
2023/01/15 01:10:27;;;;;;;1.80;0.70;;;7.00;99.90;;;;;;5079369;28;20191;-82
2023/01/15 01:12:53;;;;;;;0.97;0.70;;;7.10;99.90;;;;;;5080276;28;20556;-81
2023/01/15 01:15:19;;;;;;;1.50;0.67;;;7.00;99.90;;;;;;5075936;28;20599;-82
2023/01/15 01:17:45;;;;;;;2.03;0.70;;;7.00;99.90;;;;;;5077969;28;20224;-82
2023/01/15 01:20:16;;;;;;;4.13;0.77;;;7.00;99.90;;;;;;5076535;28;20183;-82
2023/01/15 01:22:42;;;;;;;2.70;0.70;;;7.00;99.90;;;;;;5077551;28;20271;-81
2023/01/15 01:25:08;;;;;;;1.93;0.83;;;7.00;99.90;;;;;;5080691;28;20705;-81
2023/01/15 01:27:34;;;;;;;1.00;0.67;;;7.00;99.90;;;;;;5080770;28;20179;-82
2023/01/15 01:29:59;;;;;;;0.80;0.43;;;7.00;99.90;;;;;;5078803;28;20553;-81
2023/01/15 01:32:25;;;;;;;1.53;0.60;;;7.00;99.90;;;;;;5080254;28;20195;-81
2023/01/15 01:34:51;;;;;;;1.27;0.60;;;7.00;99.90;;;;;;5080342;28;20586;-81
2023/01/15 01:37:16;;;;;;;2.10;0.73;;;7.00;99.90;;;;;;5079962;28;20335;-81
2023/01/15 01:39:42;;;;;;;4.47;0.70;;;7.00;99.90;;;;;;5079987;28;20608;-81
2023/01/15 01:42:12;;;;;;;3.10;0.67;;;7.00;99.90;;;;;;5080058;28;20230;-81
2023/01/15 01:44:37;;;;;;;1.77;0.50;;;6.90;99.90;;;;;;5080046;28;20171;-81
2023/01/15 01:47:09;;;;;;;2.30;0.70;;;6.90;99.90;;;;;;5079667;28;20186;-81
2023/01/15 01:49:38;;;;;;;0.70;0.50;;;6.90;99.90;;;;;;5080374;28;20180;-82
2023/01/15 01:52:09;;;;;;;2.93;0.53;;;6.90;99.90;;;;;;5078442;28;20195;-81
2023/01/15 01:54:37;;;;;;;4.50;0.70;;;6.90;99.90;;;;;;5080193;28;20234;-81
2023/01/15 01:57:05;;;;;;;2.73;0.70;;;6.90;99.90;;;;;;5078588;28;20181;-81
2023/01/15 01:59:31;;;;;;;4.43;0.80;;;6.90;99.90;;;;;;5079429;28;20197;-81
2023/01/15 02:01:56;;;;;;;2.23;0.60;;;6.80;99.90;;;;;;5079082;28;20205;-81
2023/01/15 02:04:25;;;;;;;2.13;0.57;;;6.80;99.90;;;;;;5078747;28;20198;-81
2023/01/15 02:06:51;;;;;;;3.97;0.70;;;6.90;99.90;;;;;;5080433;28;20178;-81
2023/01/15 02:09:16;;;;;;;3.63;0.70;;;7.00;99.90;;;;;;5079469;28;20167;-81
2023/01/15 02:11:42;;;;;;;3.50;0.70;;;6.80;99.90;;;;;;5078233;28;20325;-81
2023/01/15 02:14:16;;;;;;;1.00;0.60;;;6.90;99.90;;;;;;5077693;28;20178;-82
2023/01/15 02:16:46;;;;;;;1.73;0.70;;;6.80;99.90;;;;;;5078093;28;20216;-81
2023/01/15 02:19:55;;;;;;;3.47;0.60;;;6.80;99.90;;;;;;5078047;28;20189;-82
2023/01/15 02:22:48;;;;;;;0.63;0.43;;;6.80;99.90;;;;;;5077405;28;20214;-81
2023/01/15 02:25:33;;;;;;;1.47;0.70;;;6.80;99.90;;;;;;5078667;28;20531;-81
2023/01/15 02:28:15;;;;;;;1.17;0.60;;;6.80;99.90;;;;;;5077471;28;20193;-81
2023/01/15 02:30:45;;;;;;;2.70;0.70;;;6.80;99.90;;;;;;5077922;28;20241;-81
2023/01/15 02:33:23;;;;;;;3.07;0.60;;;6.70;99.90;;;;;;5077995;28;20197;-81
2023/01/15 02:35:57;;;;;;;2.00;0.70;;;6.80;99.90;;;;;;5077947;28;20170;-81
2023/01/15 02:38:27;;;;;;;1.80;0.60;;;6.80;99.90;;;;;;5078654;28;20171;-81
2023/01/15 02:40:57;;;;;;;4.47;0.87;;;6.70;99.90;;;;;;5080005;28;20205;-81
2023/01/15 02:43:26;;;;;;;2.23;0.80;;;6.70;99.90;;;;;;5079361;28;20186;-82
2023/01/15 02:45:53;;;;;;;3.07;0.87;;;6.70;99.90;;;;;;5079834;28;20177;-81
2023/01/15 02:48:24;;;;;;;1.40;0.67;;;6.70;99.90;;;;;;5077618;28;20178;-82
2023/01/15 02:50:56;;;;;;;0.83;0.60;;;6.70;99.90;;;;;;5078979;28;20249;-81
2023/01/15 02:53:25;;;;;;;2.90;0.70;;;6.70;99.90;;;;;;5078021;28;20270;-81
2023/01/15 02:55:55;;;;;;;2.83;0.80;;;6.80;99.90;;;;;;5079293;28;20178;-81
2023/01/15 02:58:24;;;;;;;1.13;0.47;;;6.70;99.90;;;;;;5078644;28;20186;-81
2023/01/15 03:00:53;;;;;;;1.90;0.53;;;6.80;99.90;;;;;;5078326;28;20581;-81
2023/01/15 03:03:29;;;;;;;2.77;0.73;;;6.70;99.90;;;;;;5077436;28;20195;-81
2023/01/15 03:05:55;;;;;;;2.73;0.70;;;6.70;99.90;;;;;;5077626;28;20190;-81
2023/01/15 03:08:21;;;;;;;2.53;0.50;;;6.70;99.90;;;;;;5077601;28;20175;-81
2023/01/15 03:10:57;;;;;;;2.80;0.50;;;6.70;99.90;;;;;;5078532;28;20190;-82
2023/01/15 03:13:34;;;;;;;2.20;0.70;;;6.70;99.90;;;;;;5079140;28;20205;-81
2023/01/15 03:16:38;;;;;;;4.27;0.90;;;6.70;99.90;;;;;;5077644;28;20315;-81
2023/01/15 03:19:30;;;;;;;3.07;0.80;;;6.70;99.90;;;;;;5077597;28;20571;-82
2023/01/15 03:22:03;;;;;;;2.33;0.90;;;6.70;99.90;;;;;;5079087;28;20236;-82
2023/01/15 03:24:46;;;;;;;2.50;0.90;;;6.70;99.90;;;;;;5078321;28;20183;-82
2023/01/15 03:27:12;;;;;;;3.80;0.70;;;6.70;99.90;;;;;;5077514;28;20576;-81
2023/01/15 03:29:42;;;;;;;1.83;0.80;;;6.70;99.90;;;;;;5077049;28;20179;-82
2023/01/15 03:32:08;;;;;;;1.00;0.63;;;6.60;99.90;;;;;;5077193;28;20564;-81
2023/01/15 03:34:43;;;;;;;1.30;0.60;;;6.60;99.90;;;;;;5078646;28;20179;-81
2023/01/15 03:37:10;;;;;;;1.57;0.53;;;6.60;99.90;;;;;;5076413;28;20179;-81
2023/01/15 03:39:35;;;;;;;1.07;0.60;;;6.60;99.90;;;;;;5076866;28;20182;-81
2023/01/15 03:42:38;;;;;;;1.50;0.70;;;6.60;99.90;;;;;;5077094;28;20199;-81
2023/01/15 03:45:25;;;;;;;2.93;0.60;;;6.60;99.90;;;;;;5078207;28;20657;-82
2023/01/15 03:48:09;;;;;;;3.60;0.63;;;6.60;99.90;;;;;;5078514;28;20173;-81
2023/01/15 03:50:47;;;;;;;4.20;0.90;;;6.60;99.90;;;;;;5077957;28;20198;-82
2023/01/15 03:53:20;;;;;;;1.67;0.73;;;6.60;99.90;;;;;;5078663;28;20166;-82
2023/01/15 03:56:07;;;;;;;3.20;1.20;;;6.60;99.90;;;;;;5077532;28;20173;-82
2023/01/15 03:58:42;;;;;;;7.23;1.20;;;6.60;99.90;;;;;;5078993;28;20159;-82
2023/01/15 04:01:11;;;;;;;2.73;0.90;;;6.60;99.90;;;;;;5077533;28;20186;-81
2023/01/15 04:03:38;;;;;;;3.00;0.70;;;6.60;99.90;;;;;;5077098;28;20206;-81
2023/01/15 04:06:05;;;;;;;1.50;0.53;;;6.60;99.90;;;;;;5078348;28;20171;-81
2023/01/15 04:08:36;;;;;;;1.60;0.60;;;6.60;99.90;;;;;;5078191;28;20163;-81
2023/01/15 04:11:02;;;;;;;4.07;0.80;;;6.60;99.90;;;;;;5077176;28;20187;-82
2023/01/15 04:13:28;;;;;;;4.93;0.70;;;6.60;99.90;;;;;;5078050;28;20178;-81
2023/01/15 04:15:54;;;;;;;1.00;0.70;;;6.60;99.90;;;;;;5078586;28;20174;-81
2023/01/15 04:18:20;;;;;;;2.67;0.90;;;6.60;99.90;;;;;;5078615;28;20175;-82
2023/01/15 04:20:46;;;;;;;5.43;1.10;;;6.60;99.90;;;;;;5077083;28;20728;-81
2023/01/15 04:23:12;;;;;;;5.47;0.90;;;6.60;99.90;;;;;;5078950;28;20200;-81
2023/01/15 04:25:39;;;;;;;4.73;0.80;;;6.60;99.90;;;;;;5077934;28;20171;-81
2023/01/15 04:28:05;;;;;;;5.13;0.90;;;6.60;99.90;;;;;;5079459;28;20166;-81
2023/01/15 04:30:31;;;;;;;6.63;0.80;;;6.60;99.90;;;;;;5077939;28;20191;-81
2023/01/15 04:32:57;;;;;;;7.20;0.87;;;6.60;99.90;;;;;;5077853;28;20216;-81
2023/01/15 04:35:23;;;;;;;2.27;0.80;;;6.60;99.90;;;;;;5077606;28;20268;-81
2023/01/15 04:37:48;;;;;;;2.07;0.70;;;6.60;99.90;;;;;;5078107;28;20187;-81
2023/01/15 04:44:05;;;;;;;5.57;1.07;;;6.60;99.90;;;;;;5079173;28;20175;-82
2023/01/15 04:45:44;;;;;;;8.40;1.17;;;6.60;99.90;;;;;;5080279;28;20271;-81
2023/01/15 04:48:11;;;;;;;2.70;0.93;;;6.60;99.90;;;;;;5087985;28;20171;-82
2023/01/15 04:50:37;;;;;;;5.40;0.87;;;6.60;99.90;;;;;;5096576;28;20198;-81
2023/01/15 04:53:03;;;;;;;9.90;1.40;;;6.60;99.90;;;;;;5095444;28;20198;-81
2023/01/15 04:55:29;;;;;;;4.40;1.00;;;6.70;99.90;;;;;;5079392;28;20241;-81
2023/01/15 04:57:54;;;;;;;3.90;1.00;;;6.70;99.90;;;;;;5079942;28;20177;-81
2023/01/15 05:00:21;;;;;;;5.57;1.33;;;6.70;99.90;;;;;;5079909;28;20216;-81
2023/01/15 05:02:47;;;;;;;4.47;1.43;;;6.70;99.90;;;;;;5079928;28;20194;-80
2023/01/15 05:05:13;;;;;;;3.10;1.00;;;6.70;99.90;;;;;;5079539;28;20178;-80
2023/01/15 05:07:39;;;;;;;3.80;0.87;;;6.70;99.90;;;;;;5081376;28;20269;-80
2023/01/15 05:10:05;;;;;;;4.57;0.90;;;6.70;99.90;;;;;;5080520;28;20174;-81
2023/01/15 05:12:30;;;;;;;3.70;0.70;;;6.70;99.90;;;;;;5080401;28;20622;-81
2023/01/15 05:14:56;;;;;;;4.90;0.70;;;6.70;99.90;;;;;;5081047;28;20201;-81
2023/01/15 05:17:21;;;;;;;7.13;1.27;;;6.70;99.90;;;;;;5080918;28;20638;-81
2023/01/15 05:19:47;;;;;;;6.03;1.33;;;6.70;99.90;;;;;;5080933;28;20213;-81
2023/01/15 05:22:12;;;;;;;4.77;0.93;;;6.70;99.90;;;;;;5078913;28;20560;-81
2023/01/15 05:24:38;;;;;;;7.13;1.10;;;6.70;99.90;;;;;;5081337;28;20175;-80
2023/01/15 05:27:04;;;;;;;4.90;1.07;;;6.70;99.90;;;;;;5081109;28;20171;-81
2023/01/15 05:29:30;;;;;;;4.90;1.53;;;6.70;99.90;;;;;;5079421;28;20198;-80
2023/01/15 05:31:56;;;;;;;4.90;1.43;;;6.70;99.90;;;;;;5080591;28;20685;-81
2023/01/15 05:34:21;;;;;;;6.93;1.53;;;6.70;99.90;;;;;;5078790;28;20175;-81
2023/01/15 05:36:47;;;;;;;6.70;1.07;;;6.70;99.90;;;;;;5080307;28;20578;-81
2023/01/15 05:39:12;;;;;;;7.30;1.13;;;6.70;99.90;;;;;;5080596;28;20311;-81
2023/01/15 05:41:50;;;;;;;4.93;1.13;;;6.70;99.90;;;;;;5079737;28;20203;-81
2023/01/15 05:44:23;;;;;;;6.20;1.23;;;6.70;99.90;;;;;;5080646;28;20730;-82
2023/01/15 05:46:50;;;;;;;6.87;1.40;;;6.70;99.90;;;;;;5081105;28;20167;-81
2023/01/15 05:49:19;;;;;;;4.20;1.07;;;6.80;99.90;;;;;;5078565;28;20213;-82
2023/01/15 05:51:45;;;;;;;4.93;1.13;;;6.80;99.90;;;;;;5080170;28;20187;-82
2023/01/15 05:54:13;;;;;;;4.83;0.87;;;6.80;99.90;;;;;;5081197;28;20205;-81
2023/01/15 05:56:39;;;;;;;7.83;1.27;;;6.80;99.90;;;;;;5079013;28;20179;-81
2023/01/15 05:59:06;;;;;;;5.07;1.20;;;6.80;99.90;;;;;;5079197;28;20179;-83
2023/01/15 06:01:32;;;;;;;8.77;1.23;;;6.90;99.90;;;;;;5078223;28;20744;-82
2023/01/15 06:03:59;;;;;;;8.33;1.53;;;6.90;99.90;;;;;;5081018;28;20228;-82
2023/01/15 06:06:25;;;;;;;3.13;0.90;;;6.90;99.90;;;;;;5080534;28;20199;-81
2023/01/15 06:08:50;;;;;;;8.60;1.37;;;6.90;99.90;;;;;;5080529;28;20183;-82
2023/01/15 06:11:16;;;;;;;8.53;1.43;;;6.90;99.90;;;;;;5079964;28;20225;-81
2023/01/15 06:13:41;;;;;;;7.10;1.27;;;6.90;99.90;;;;;;5080078;28;20174;-81
2023/01/15 06:16:09;;;;;;;3.73;1.10;;;6.80;99.90;;;;;;5078892;28;20638;-81
2023/01/15 06:18:35;;;;;;;4.47;1.30;;;6.90;99.90;;;;;;5080326;28;20177;-81
2023/01/15 06:21:06;;;;;;;6.37;1.27;;;6.90;99.90;;;;;;5078755;28;20304;-81
2023/01/15 06:23:35;;;;;;;7.07;2.17;;;7.00;99.90;;;;;;5078484;28;20199;-82
2023/01/15 06:26:02;;;;;;;5.17;1.40;;;6.80;99.90;;;;;;5078743;28;20221;-81
2023/01/15 06:28:27;;;;;;;5.77;1.33;;;6.90;99.90;;;;;;5078665;28;20170;-82
2023/01/15 06:30:53;;;;;;;8.93;1.30;;;6.90;99.90;;;;;;5079317;28;20190;-82
2023/01/15 06:33:18;;;;;;;6.23;1.10;;;6.90;99.90;;;;;;5078429;28;20272;-82
2023/01/15 06:35:44;;;;;;;5.77;1.17;;;6.80;99.90;;;;;;5079571;28;20193;-81
2023/01/15 06:38:09;;;;;;;7.80;1.07;;;6.90;99.90;;;;;;5079166;28;20175;-81
2023/01/15 06:40:35;;;;;;;6.67;1.47;;;6.90;99.90;;;;;;5078210;28;20199;-82
2023/01/15 06:48:29;;;;;;;5.77;1.37;;;6.90;99.90;;;;;;5078857;28;20536;-81
2023/01/15 06:50:55;;;;;;;3.90;1.37;;;6.90;99.90;;;;;;5079040;28;20186;-81
2023/01/15 06:53:21;;;;;;;2.80;1.20;;;7.00;99.90;;;;;;5078840;28;20167;-82
2023/01/15 06:55:47;;;;;;;5.60;1.10;;;7.00;99.90;;;;;;5077096;28;20183;-81
2023/01/15 06:58:12;;;;;;;5.33;1.60;;;6.90;99.90;;;;;;5077230;28;20627;-81
2023/01/15 07:00:41;;;;;;;5.07;1.13;;;7.00;99.90;;;;;;5078975;28;20247;-81
2023/01/15 07:03:07;;;;;;;4.57;0.83;;;6.90;99.90;;;;;;5077029;28;20202;-81
2023/01/15 07:05:33;;;;;;;4.60;1.50;;;6.90;99.90;;;;;;5078820;28;20307;-82
2023/01/15 07:07:59;;;;;;;4.10;1.27;;;6.90;99.90;;;;;;5078977;28;20175;-81
2023/01/15 07:10:24;;;;;;;8.90;1.53;;;6.90;99.90;;;;;;5078678;28;20183;-82
2023/01/15 07:12:50;;;;;;;4.23;1.20;;;6.90;99.90;;;;;;5076172;28;20179;-81
2023/01/15 07:15:15;;;;;;;7.80;1.40;;;6.90;99.90;;;;;;5077742;28;20182;-82
2023/01/15 07:17:41;;;;;;;8.80;1.50;;;6.90;99.90;;;;;;5077202;28;20265;-82
2023/01/15 07:20:07;;;;;;;5.10;1.10;;;6.90;99.90;;;;;;5076839;28;20178;-81
2023/01/15 07:22:33;;;;;;;7.77;1.27;;;6.90;99.90;;;;;;5076526;28;20167;-81
2023/01/15 07:24:58;;;;;;;7.27;1.40;;;6.80;99.90;;;;;;5077446;28;20525;-81
2023/01/15 07:27:24;;;;;;;4.53;1.13;;;6.80;99.90;;;;;;5078949;28;20176;-81
2023/01/15 07:29:50;;;;;;;8.37;1.33;;;6.80;99.90;;;;;;5078884;28;20231;-81
2023/01/15 07:32:17;;;;;;;4.67;1.17;;;6.80;99.90;;;;;;5078618;28;20190;-81
2023/01/15 07:34:42;;;;;;;2.23;0.90;;;6.80;99.90;;;;;;5078334;28;20183;-81
2023/01/15 07:37:08;;;;;;;10.30;1.63;;;6.80;99.90;;;;;;5076788;28;20181;-81
2023/01/15 07:39:33;;;;;;;6.90;1.37;;;6.70;99.90;;;;;;5076737;28;20202;-81
2023/01/15 07:50:15;;;;;;;8.40;1.10;;;6.70;99.90;;;;;;5078286;28;20162;-82
2023/01/15 07:52:41;;;;;;;3.47;1.00;;;6.70;99.90;;;;;;5077857;28;20202;-82
2023/01/15 07:55:08;;;;;;;5.53;1.07;;;6.70;99.90;;;;;;5077182;28;20681;-81
2023/01/15 07:57:33;;;;;;;3.10;1.00;;;6.70;99.90;;;;;;5078885;28;20177;-81
2023/01/15 07:59:59;;;;;;;6.43;1.10;;;6.70;99.90;;;;;;5078409;28;20179;-80
2023/01/15 08:02:26;;;;;;;3.17;0.87;;;6.70;99.90;;;;;;5078200;28;20296;-80
2023/01/15 08:04:51;;;;;;;6.10;1.03;;;6.70;99.90;;;;;;5077634;28;20549;-80
2023/01/15 08:07:17;;;;;;;5.43;1.20;;;6.70;99.90;;;;;;5076989;28;20256;-81
2023/01/15 08:09:42;;;;;;;6.67;1.23;;;6.70;99.90;;;;;;5077006;28;20202;-81
2023/01/15 08:15:11;;;;;;;4.13;1.07;;;6.70;99.90;;;;;;5078989;28;20265;-80
2023/01/15 08:17:39;;;;;;;4.97;0.90;;;6.80;99.90;;;;;;5080337;28;20151;-78
2023/01/15 08:20:08;;;;;;;3.23;1.27;;;6.80;99.90;;;;;;5081173;28;20179;-79
2023/01/15 08:22:33;;;;;;;1.77;0.77;;;6.80;99.90;;;;;;5063207;28;20220;-80
2023/01/15 08:24:59;;;;;;;4.90;1.17;;;6.80;99.90;;;;;;5084739;28;20600;-79
2023/01/15 08:27:25;;;;;;;3.07;1.00;;;6.80;99.90;;;;;;5084841;28;20171;-78
2023/01/15 08:29:51;;;;;;;5.77;1.37;;;6.80;99.90;;;;;;5083546;28;20171;-80
2023/01/15 08:32:16;;;;;;;4.60;0.87;;;6.70;99.90;;;;;;5084018;28;20186;-79
2023/01/15 08:34:42;;;;;;;2.13;0.73;;;6.70;99.90;;;;;;5083773;28;20185;-78
2023/01/15 08:37:08;;;;;;;5.73;0.90;;;6.70;99.90;;;;;;5084422;28;20244;-79
2023/01/15 08:39:34;;;;;;;1.47;0.77;;;6.80;99.90;;;;;;5083882;28;20182;-79
2023/01/15 08:41:59;;;;;;;2.90;1.00;;;6.70;99.90;;;;;;5089375;28;20199;-79
2023/01/15 08:44:25;;;;;;;5.30;1.10;;;6.70;99.90;;;;;;5093024;28;20225;-79
2023/01/15 08:46:51;;;;;;;5.47;1.20;;;6.70;99.90;;;;;;5065718;28;20255;-80
2023/01/15 08:49:18;;;;;;;2.13;0.70;;;6.60;99.90;;;;;;5058559;28;20278;-79
2023/01/15 08:51:46;;;;;;;5.70;1.20;;;6.60;99.90;;;;;;5061823;28;20183;-79
2023/01/15 08:54:12;;;;;;;3.40;0.80;;;6.60;99.90;;;;;;5059424;28;20179;-79
2023/01/15 08:56:37;;;;;;;2.07;0.90;;;6.60;99.90;;;;;;5061032;28;20250;-79
2023/01/15 08:59:04;;;;;;;2.43;0.93;;;6.60;99.90;;;;;;5059958;28;20203;-79
2023/01/15 09:01:30;;;;;;;2.97;1.07;;;6.50;99.90;;;;;;5058349;28;20286;-79
2023/01/15 09:03:57;;;;;;;3.77;0.80;;;6.50;99.90;;;;;;5058895;28;20223;-79
2023/01/15 09:06:22;;;;;;;3.13;1.00;;;6.50;99.90;;;;;;5059589;28;20176;-80
2023/01/15 09:08:48;;;;;;;4.13;0.83;;;6.40;99.90;;;;;;5058646;28;20178;-80
2023/01/15 09:11:13;;;;;;;1.57;0.90;;;6.40;99.90;;;;;;5058874;28;20572;-79
2023/01/15 09:13:39;;;;;;;2.97;0.63;;;6.30;99.90;;;;;;5061116;28;20171;-80
2023/01/15 09:16:05;;;;;;;7.73;1.10;;;6.30;99.90;;;;;;5060311;28;20183;-80
2023/01/15 09:18:32;;;;;;;2.60;0.70;;;6.40;99.90;;;;;;5060349;28;20245;-79
2023/01/15 09:20:58;;;;;;;3.93;1.03;;;6.30;99.90;;;;;;5058746;28;20207;-79
2023/01/15 09:23:24;;;;;;;5.23;0.87;;;6.30;99.90;;;;;;5059614;28;20202;-80
2023/01/15 09:25:54;;;;;;;5.33;1.10;;;6.30;99.90;;;;;;5059492;28;20164;-79
2023/01/15 09:28:20;;;;;;;3.43;0.80;;;6.30;99.90;;;;;;5059731;28;20187;-78
2023/01/15 09:30:45;;;;;;;5.40;1.03;;;6.40;99.90;;;;;;5057838;28;20203;-78
2023/01/15 09:33:11;;;;;;;3.13;1.00;;;6.40;99.90;;;;;;5058116;28;20537;-78
2023/01/15 09:35:39;;;;;;;1.87;0.70;;;6.40;99.90;;;;;;5055216;28;20187;-77
2023/01/15 09:38:04;;;;;;;2.60;0.80;;;6.40;99.90;;;;;;5058222;28;20174;-78
2023/01/15 09:40:49;;;;;;;9.73;4.20;;;6.50;99.90;;;;;;5053278;28;20239;-78
2023/01/15 09:43:22;;;;;;;3.50;1.13;;;6.50;99.90;;;;;;5039312;28;20200;-78
2023/01/15 09:46:14;;;;;;;4.93;1.40;;;6.50;99.90;;;;;;5037559;28;20543;-77
2023/01/15 09:49:05;;;;;;;3.03;0.83;;;6.60;99.90;;;;;;5037685;28;20525;-78
2023/01/15 09:51:43;;;;;;;4.60;1.57;;;6.60;99.90;;;;;;5018977;28;20214;-77
2023/01/15 09:54:40;;;;;;;6.60;1.17;;;6.70;99.90;;;;;;5037658;28;20152;-78
2023/01/15 09:57:18;;;;;;;5.30;1.17;;;6.70;99.90;;;;;;5054301;28;20702;-77
2023/01/15 09:59:46;;;;;;;5.73;1.33;;;6.80;99.90;;;;;;5054436;28;20194;-78
2023/01/15 10:02:26;;;;;;;4.23;1.03;;;6.80;99.90;;;;;;5055784;28;20222;-78
2023/01/15 10:05:06;;;;;;;6.20;1.00;;;6.80;99.90;;;;;;5056014;28;20186;-77
2023/01/15 10:07:47;;;;;;;3.60;0.77;;;6.90;99.90;;;;;;5054451;28;20179;-77
2023/01/15 10:10:16;;;;;;;7.30;1.10;;;7.00;99.90;;;;;;5056631;28;20163;-78
2023/01/15 10:12:44;;;;;;;5.10;1.13;;;7.10;99.90;;;;;;5055580;28;20184;-78
2023/01/15 10:15:14;;;;;;;5.93;1.10;;;7.10;99.90;;;;;;5054311;28;20194;-77
2023/01/15 10:17:42;;;;;;;8.83;1.10;;;7.10;99.90;;;;;;5055774;28;20156;-77
2023/01/15 10:20:30;;;;;;;4.73;1.10;;;7.10;99.90;;;;;;5055182;28;20207;-77
2023/01/15 10:23:06;;;;;;;7.07;1.03;;;7.20;99.90;;;;;;5054157;28;20561;-77
2023/01/15 10:26:00;;;;;;;4.53;1.00;;;7.20;1.00;;;;;;5056751;28;20184;-78
2023/01/15 10:28:35;;;;;;;8.20;1.33;;;7.20;99.90;;;;;;5049082;28;20725;-78
2023/01/15 10:31:15;;;;;;;3.43;1.23;;;7.20;97.50;;;;;;5041930;28;20286;-78
2023/01/15 10:33:52;;;;;;;4.43;1.10;;;7.30;99.90;;;;;;5035923;28;20509;-79
2023/01/15 10:36:25;;;;;;;4.97;1.20;;;7.30;1.00;;;;;;5037079;28;20670;-78
2023/01/15 10:39:13;;;;;;;3.80;1.33;;;7.40;1.00;;;;;;5036629;28;20255;-77
2023/01/15 10:42:01;;;;;;;6.27;1.17;;;7.50;1.00;;;;;;5036075;28;20255;-78
2023/01/15 10:44:54;;;;;;;4.83;1.00;;;7.50;1.00;;;;;;5037027;28;20271;-77
2023/01/15 10:47:29;;;;;;;7.90;1.80;;;7.50;1.00;;;;;;5040304;28;20280;-77
2023/01/15 10:49:58;;;;;;;3.43;0.77;;;7.50;1.00;;;;;;5037013;28;20167;-77
2023/01/15 10:52:32;;;;;;;5.43;1.67;;;7.50;99.90;;;;;;5036351;28;20695;-78
2023/01/15 10:55:40;;;;;;;4.80;0.87;;;7.50;1.00;;;;;;5045611;28;20661;-78
2023/01/15 10:58:19;;;;;;;3.83;1.17;;;7.50;1.00;;;;;;5033966;28;20179;-77
2023/01/15 11:00:51;;;;;;;4.67;0.90;;;7.60;99.90;;;;;;5052820;28;20222;-77
2023/01/15 11:03:23;;;;;;;8.47;1.33;;;7.60;1.00;;;;;;5052456;28;20577;-77
2023/01/15 11:05:48;;;;;;;6.67;1.13;;;7.60;99.90;;;;;;5053842;28;20170;-77
2023/01/15 11:08:26;;;;;;;2.97;1.00;;;7.60;1.00;;;;;;5052156;28;20176;-77
2023/01/15 11:10:51;;;;;;;3.13;1.00;;;7.60;1.00;;;;;;5052092;28;20286;-77
2023/01/15 11:19:42;;;;;;;2.90;0.80;;;7.60;86.40;;;;;;5054472;28;20235;-78
2023/01/15 11:22:16;;;;;;;5.90;1.10;;;7.60;1.00;;;;;;5036304;28;20287;-77
2023/01/15 11:24:52;;;;;;;5.40;1.27;;;7.60;1.00;;;;;;5032295;28;20200;-77
2023/01/15 11:27:23;;;;;;;3.27;1.07;;;7.60;1.00;;;;;;5033367;28;20175;-77
2023/01/15 11:29:54;;;;;;;4.60;0.90;;;7.60;97.80;;;;;;5033351;28;20163;-77
2023/01/15 11:32:35;;;;;;;1.10;0.70;;;7.60;1.00;;;;;;5033173;28;20188;-77
2023/01/15 11:35:15;;;;;;;3.43;0.90;;;7.60;1.00;;;;;;5033714;28;20180;-78
2023/01/15 11:37:42;;;;;;;5.20;0.90;;;7.70;20.40;;;;;;5036792;28;20178;-77
2023/01/15 11:40:23;;;;;;;4.93;0.80;;;7.70;46.40;;;;;;5051835;28;20234;-77
2023/01/15 11:51:19;;;;;;;6.40;1.10;;;7.50;99.90;;;;;;5053152;28;20202;-77
2023/01/15 11:53:52;;;;;;;5.40;1.03;;;7.50;1.00;;;;;;5053221;28;20700;-78
2023/01/15 11:56:23;;;;;;;2.63;0.77;;;7.50;99.90;;;;;;5049832;28;20183;-78
2023/01/15 11:58:52;;;;;;;7.97;0.93;;;7.50;1.00;;;;;;5055885;28;20178;-78
2023/01/15 12:01:27;;;;;;;3.63;1.17;;;7.50;99.90;;;;;;5056861;28;20239;-77
2023/01/15 12:03:53;;;;;;;5.93;0.70;;;7.50;99.90;;;;;;5059123;28;20183;-78
2023/01/15 12:06:20;;;;;;;6.63;1.27;;;7.60;99.90;;;;;;5058985;28;20192;-78
2023/01/15 12:09:13;;;;;;;3.87;0.90;;;7.60;99.90;;;;;;5058807;28;20210;-78
2023/01/15 12:12:01;;;;;;;3.20;1.37;;;7.60;99.90;;;;;;5055286;28;20192;-78
2023/01/15 12:14:58;;;;;;;6.60;1.27;;;7.60;99.90;;;;;;5040051;28;20226;-79
2023/01/15 12:17:28;;;;;;;4.90;1.03;;;7.60;29.80;;;;;;5039792;28;20532;-77
2023/01/15 12:20:27;;;;;;;1.13;0.87;;;7.60;99.90;;;;;;5036509;28;20648;-77
2023/01/15 12:23:27;;;;;;;7.20;1.03;;;7.60;99.90;;;;;;5037414;28;20231;-79
2023/01/15 12:25:58;;;;;;;4.30;1.10;;;7.60;1.00;;;;;;5037312;28;20157;-78
2023/01/15 12:28:30;;;;;;;3.83;0.80;;;7.50;99.90;;;;;;5054458;28;20255;-78
2023/01/15 12:31:17;;;;;;;5.10;0.90;;;7.50;99.90;;;;;;5056859;28;20692;-78
2023/01/15 12:33:59;;;;;;;2.23;0.80;;;7.60;63.20;;;;;;5055232;28;20666;-77
2023/01/15 12:36:41;;;;;;;4.87;1.17;;;7.50;1.00;;;;;;5056517;28;20198;-77
2023/01/15 12:39:25;;;;;;;5.17;0.73;;;7.60;1.00;;;;;;5062507;28;20172;-77
2023/01/15 12:45:02;;;;;;;0.70;0.50;;;7.60;88.40;;;;;;5056394;28;20194;-77
2023/01/15 12:47:38;;;;;;;1.67;0.73;;;7.70;1.00;;;;;;5055079;28;20179;-77
2023/01/15 12:50:22;;;;;;;6.03;0.80;;;7.70;1.00;;;;;;5057093;28;20155;-79
2023/01/15 12:52:56;;;;;;;4.13;0.90;;;7.70;1.00;;;;;;5071613;28;20262;-78
2023/01/15 12:55:27;;;;;;;3.17;1.07;;;7.70;1.00;;;;;;5056037;28;20195;-77
2023/01/15 12:57:59;;;;;;;3.57;1.20;;;7.80;71.90;;;;;;5056597;28;20191;-78
2023/01/15 13:00:31;;;;;;;2.37;0.60;;;7.70;1.00;;;;;;5056326;28;20262;-78
2023/01/15 13:03:04;;;;;;;3.37;0.53;;;7.70;1.00;;;;;;5054947;28;20206;-78
2023/01/15 13:05:38;;;;;;;2.00;0.70;;;7.80;1.00;;;;;;5054892;28;20168;-77
2023/01/15 13:08:19;;;;;;;2.23;0.80;;;7.80;1.00;;;;;;5056231;28;20522;-79
2023/01/15 13:10:47;;;;;;;1.27;0.60;;;7.70;1.00;;;;;;5054092;28;20191;-78
2023/01/15 13:13:23;;;;;;;3.40;0.63;;;7.60;1.00;;;;;;5056024;28;20176;-78
2023/01/15 13:16:18;;;;;;;3.07;0.73;;;7.70;99.90;;;;;;5055108;28;20202;-78
2023/01/15 13:19:17;;;;;;;4.57;1.07;;;7.60;1.00;;;;;;5056006;28;20248;-77
2023/01/15 13:21:46;;;;;;;4.93;1.33;;;7.60;99.90;;;;;;5036145;28;20578;-78
2023/01/15 13:25:00;;;;;;;1.23;0.70;;;7.60;1.00;;;;;;5034912;28;20202;-78
2023/01/15 13:27:55;;;;;;;7.60;0.97;;;7.60;1.00;;;;;;5037269;28;20161;-77
2023/01/15 13:30:55;;;;;;;1.03;0.70;;;7.60;1.00;;;;;;5036368;28;20247;-78
2023/01/15 13:33:45;;;;;;;2.77;1.10;;;7.60;18.70;;;;;;5035663;28;20169;-78
2023/01/15 13:36:26;;;;;;;4.43;1.00;;;7.60;1.00;;;;;;5034589;28;20175;-79
2023/01/15 13:38:54;;;;;;;2.10;0.93;;;7.60;1.00;;;;;;5036508;28;20156;-78
2023/01/15 13:44:18;;;;;;;1.13;0.60;;;7.60;31.90;;;;;;5036180;28;20191;-78
2023/01/15 13:46:45;;;;;;;2.57;0.87;;;7.60;1.00;;;;;;5034969;28;20539;-78
2023/01/15 13:49:28;;;;;;;6.47;1.03;;;7.60;1.00;;;;;;5034407;28;20180;-78
2023/01/15 13:51:57;;;;;;;3.47;0.93;;;7.60;1.00;;;;;;5033735;28;20199;-78
2023/01/15 13:54:26;;;;;;;2.97;0.87;;;7.60;1.00;;;;;;5041053;28;20183;-78
2023/01/15 13:56:51;;;;;;;2.07;0.97;;;7.60;99.90;;;;;;5054164;28;20186;-78
2023/01/15 13:59:41;;;;;;;5.43;1.13;;;7.60;1.00;;;;;;5053838;28;20184;-78
2023/01/15 14:02:23;;;;;;;2.80;0.70;;;7.70;1.00;;;;;;5055038;28;20257;-78
2023/01/15 14:04:49;;;;;;;3.67;0.90;;;7.70;1.00;;;;;;5049566;28;20213;-77